• Join FlightAware (Why Join?)
  • Login
  • US Flag 
01:49AM EDT


 

Airport Tracker/Info


-or-


 

Live Flight TrackerFlight Track Log ✈ N529LB ✈ 09-Jun-2013 ✈ KSMQ - KROC

Flight Track Log - Related Links

Times and Time Zones

All times are in EDT time to prevent confusion due to time zone crossing. See the N529LB flight status page for this flight to view local times or setup timezone preferences in your user account.

Time Position Orientation Groundspeed Altitude Reporting Facility
EDT Latitude Longitude Course Direction KTS MPH feet Rate Location/Type
03:53PM 40.6000 -74.7500 21° North 139 160 2,100  Level New York TRACON
03:54PM 40.6000 -74.7167 90° East 143 165 3,000 840 Climbing New York TRACON
03:55PM 40.6167 -74.6667 66° East 141 162 3,800 480 Climbing New York TRACON
03:56PM 40.6333 -74.6167 66° East 168 193 4,000 540 Climbing New York TRACON
03:57PM 40.6500 -74.5500 72° East 159 183 4,900 900 Climbing New York TRACON
03:58PM 40.6667 -74.5000 66° East 140 161 5,800 840 Climbing New York TRACON
03:59PM 40.8683 -74.5909 21° North  Level FlightAware Approximate
03:59PM 40.7000 -74.4833 21° North 135 155 6,700  Level New York TRACON
04:00PM 40.7333 -74.4500 37° Northeast 133 153 7,500 780 Climbing New York TRACON
04:01PM 40.7667 -74.4500 360° North 123 142 8,300 660 Climbing New York TRACON
04:02PM 40.8000 -74.4500 360° North 120 138 8,900 300 Climbing New York TRACON
04:03PM 40.8333 -74.4500 360° North 158 182 9,000  Climbing New York TRACON
04:04PM 40.8833 -74.4500 360° North 162 186 9,000  Level New York TRACON
04:05PM 40.9333 -74.4667 346° North 156 180 9,000  Level New York TRACON
04:06PM 40.9667 -74.4667 360° North 158 182 9,000  Level New York TRACON
04:07PM 41.0167 -74.4833 346° North 157 181 9,000  Level New York TRACON
04:09PM 41.0672 -74.4805 North  Level FlightAware Approximate
04:16PM 41.3569 -74.5229 314° West  Level FlightAware Approximate
04:17PM 41.3868 -74.5648 314° West  Level FlightAware Approximate
04:18PM 41.4139 -74.6096 305° West  Level FlightAware Approximate
04:19PM 41.4389 -74.6569 305° West  Level FlightAware Approximate
04:20PM 41.4638 -74.7042 305° West  Level FlightAware Approximate
04:21PM 41.4888 -74.7516 305° West  Level FlightAware Approximate
04:22PM 41.5137 -74.7990 305° West  Level FlightAware Approximate
04:23PM 41.5386 -74.8464 305° West  Level FlightAware Approximate
04:24PM 41.5634 -74.8938 305° West  Level FlightAware Approximate
04:24PM 41.5675 -74.9272 301° West 128 147 9,900  Level New York Center
04:25PM 41.5862 -74.9432 301° West  Level FlightAware Approximate
04:25PM 41.5928 -74.9758 305° West 136 157 10,000  Level New York Center
04:26PM 41.6086 -74.9928 301° West  Level FlightAware Approximate
04:26PM 41.6161 -75.0244 303° West 152 175 10,000  Level New York Center
04:27PM 41.6310 -75.0424 301° West  Level FlightAware Approximate
04:27PM 41.6414 -75.0733 305° West 157 181 10,000  Level New York Center
04:28PM 41.6533 -75.0921 301° West  Level FlightAware Approximate
04:28PM 41.6644 -75.1247 301° West 157 181 10,000  Level New York Center
04:29PM 41.6751 -75.1405 301° West  Level FlightAware Approximate
04:29PM 41.6839 -75.1622 305° West 157 181 10,000  Level New York Center
04:30PM 41.7111 -75.2167 304° West 162 186 10,000  Level New York Center
04:31PM 41.7361 -75.2714 301° West 162 186 10,000  Level New York Center
04:32PM 41.7614 -75.3175 306° West 162 186 10,000  Level New York Center
04:33PM 41.7806 -75.3606 301° West 162 186 10,000  Level New York Center
04:34PM 41.8078 -75.4125 305° West 162 186 10,000  Level New York Center
04:35PM 41.8328 -75.4642 303° West 162 186 10,000  Level New York Center
04:36PM 41.8600 -75.5136 306° West 167 192 10,000  Level New York Center
04:37PM 41.8828 -75.5653 301° West 167 192 10,000  Level New York Center
04:38PM 41.9019 -75.6083 301° West 167 192 10,000  Level New York Center
04:39PM 41.9308 -75.6664 304° West 167 192 10,000  Level New York Center
04:40PM 41.9539 -75.7128 304° West 167 192 10,000  Level New York Center
04:41PM 41.9767 -75.7617 302° West 167 192 10,000  Level New York Center
04:42PM 42.0036 -75.8169 303° West 162 186 10,000  Level New York Center
04:43PM 42.0264 -75.8661 302° West 162 186 10,000  Level New York Center
04:44PM 42.0492 -75.9181 301° West 162 186 10,000  Level New York Center
04:45PM 42.0722 -75.9617 305° West 162 186 10,000  Level New York Center
04:46PM 42.0969 -76.0139 303° West 162 186 10,000  Level New York Center
04:47PM 42.1219 -76.0636 304° West 162 186 10,000  Level New York Center
04:48PM 42.1464 -76.1186 301° West 162 186 10,000 -120 Level New York Center
04:49PM 42.1644 -76.1564 303° West 179 206 9,900 -120 Descending Cleveland Center
04:50PM 42.1850 -76.2000 302° West 172 198 9,900  Level Cleveland Center
04:51PM 42.2056 -76.2489 300° West 158 182 9,900  Level Cleveland Center
04:52PM 42.2331 -76.3117 301° West 172 198 9,900  Level Cleveland Center
04:53PM 42.2514 -76.3581 298° West 167 192 9,900  Level Cleveland Center
04:54PM 42.2764 -76.4153 301° West 167 192 10,000  Climbing Cleveland Center
04:55PM 42.2992 -76.4672 301° West 167 192 10,000  Level Cleveland Center
04:56PM 42.3219 -76.5192 301° West 162 186 10,000  Level Cleveland Center
04:57PM 42.3447 -76.5739 299° West 162 186 10,000  Level Cleveland Center
04:58PM 42.3672 -76.6258 300° West 157 181 10,000  Level Cleveland Center
04:59PM 42.3900 -76.6778 301° West 157 181 10,000  Level Cleveland Center
05:00PM 42.4125 -76.7328 299° West 157 181 10,000  Level Cleveland Center
05:01PM 42.4328 -76.7794 300° West 159 183 10,000 -180 Level Cleveland Center
05:02PM 42.4622 -76.8453 301° West 164 189 9,700 -420 Descending Cleveland Center
05:03PM 42.4850 -76.9031 298° West 173 199 9,200 -480 Descending Cleveland Center
05:04PM 42.5053 -76.9525 299° West 162 186 8,800 -480 Descending Cleveland Center
05:05PM 42.5319 -77.0072 303° West 162 186 8,300 -540 Descending Cleveland Center
05:06PM 42.5764 -77.0331 337° Northwest 178 205 7,800 -540 Descending Cleveland Center
05:07PM 42.6233 -77.0614 336° Northwest 174 200 7,300 -420 Descending Cleveland Center
05:08PM 42.6700 -77.0869 338° Northwest 180 207 7,000 -180 Descending Cleveland Center
05:09PM 42.7125 -77.1131 336° Northwest 179 206 7,000 -60 Level Cleveland Center
05:10PM 42.7528 -77.1389 335° Northwest 174 200 6,900 -300 Descending Cleveland Center
05:11PM 42.8036 -77.1675 338° Northwest 173 199 6,500 -480 Descending Cleveland Center
05:12PM 42.8483 -77.1961 335° Northwest 174 200 6,000 -480 Descending Cleveland Center
05:13PM 42.8886 -77.2194 337° Northwest 172 198 5,600 -480 Descending Cleveland Center
05:14PM 42.9331 -77.2481 335° Northwest 178 205 5,100 -540 Descending Cleveland Center
05:15PM 42.9883 -77.2822 336° Northwest 179 206 4,500 -540 Descending Cleveland Center
05:16PM 43.0308 -77.3083 336° Northwest 179 206 4,000 -540 Descending Cleveland Center
05:17PM 43.0711 -77.3317 337° Northwest 180 207 3,600 -480 Descending Cleveland Center
05:18PM 43.1178 -77.3606 336° Northwest 180 207 3,100 -300 Descending Cleveland Center
05:19PM 43.1622 -77.3897 334° Northwest 167 192 3,000 -180 Descending Cleveland Center
05:20PM 43.1964 -77.4219 325° Northwest 161 185 2,800 -360 Descending Cleveland Center
05:21PM 43.1875 -77.4739 257° West 165 190 2,400 -240 Descending Cleveland Center
05:22PM 43.1661 -77.5289 242° Southwest 164 189 2,400 -360 Level Cleveland Center
05:23PM 43.1447 -77.5869 243° Southwest 156 180 1,700 -660 Descending Cleveland Center
05:24PM 43.1311 -77.6303 247° West 122 140 1,100 -600 Descending Cleveland Center